createdAt,value
2017-12-03T04:30:14.850Z,14.93
2017-12-03T04:32:43.275Z,15.82
2017-12-03T04:35:10.852Z,17.62
2017-12-03T04:37:38.437Z,16.23
2017-12-03T04:40:06.057Z,16.77
2017-12-03T04:42:33.632Z,15.25
2017-12-03T04:45:02.721Z,17.23
2017-12-03T04:47:30.333Z,15.52
2017-12-03T04:49:57.922Z,13.88
2017-12-03T04:52:25.505Z,16.33
2017-12-03T04:54:53.126Z,14.68
2017-12-03T04:57:20.710Z,16.35
2017-12-03T04:59:48.294Z,15.80
2017-12-03T05:02:15.897Z,15.35
2017-12-03T05:04:43.477Z,15.95
2017-12-03T05:07:11.093Z,17.37
2017-12-03T05:09:39.446Z,15.45
2017-12-03T05:12:07.029Z,14.10
2017-12-03T05:14:35.432Z,15.90
2017-12-03T05:17:03.017Z,18.45
2017-12-03T05:19:30.601Z,14.90
2017-12-03T05:21:58.374Z,15.00
2017-12-03T05:24:26.732Z,14.13
2017-12-03T05:26:54.313Z,13.30
2017-12-03T05:29:22.705Z,14.07
2017-12-03T05:31:51.055Z,14.73
2017-12-03T05:34:18.633Z,14.85
2017-12-03T05:36:47.025Z,15.10
2017-12-03T05:39:14.611Z,14.82
2017-12-03T05:41:42.194Z,12.85
2017-12-03T05:44:09.851Z,14.05
2017-12-03T05:46:37.429Z,15.07
2017-12-03T05:49:05.013Z,14.50
2017-12-03T05:51:33.382Z,14.35
2017-12-03T05:54:01.734Z,13.80
2017-12-03T05:56:29.366Z,15.10
2017-12-03T05:58:56.950Z,13.80
2017-12-03T06:01:24.533Z,12.82
2017-12-03T06:03:52.917Z,15.45
2017-12-03T06:06:21.266Z,13.50
2017-12-03T06:08:48.846Z,13.05
2017-12-03T06:11:17.221Z,13.98
2017-12-03T06:13:45.570Z,14.52
2017-12-03T06:16:13.185Z,15.10
2017-12-03T06:18:40.867Z,12.00
2017-12-03T06:21:08.451Z,13.00
2017-12-03T06:23:36.074Z,14.75
2017-12-03T06:26:03.654Z,12.50
2017-12-03T06:28:31.239Z,12.93
2017-12-03T06:30:58.845Z,13.45
2017-12-03T06:33:26.426Z,14.52
2017-12-03T06:35:54.050Z,14.40
2017-12-03T06:38:21.634Z,12.95
2017-12-03T06:40:49.302Z,14.02
2017-12-03T06:43:16.914Z,13.02
2017-12-03T06:45:45.266Z,15.18
2017-12-03T06:48:12.850Z,13.85
2017-12-03T06:50:41.221Z,14.35
2017-12-03T06:53:09.587Z,14.02
2017-12-03T06:55:37.950Z,13.13
2017-12-03T06:58:05.574Z,15.55
2017-12-03T07:00:33.155Z,13.15
2017-12-03T07:03:00.738Z,13.10
2017-12-03T07:05:28.351Z,12.73
2017-12-03T07:07:55.933Z,14.50
2017-12-03T07:10:23.513Z,15.25
2017-12-03T07:12:51.142Z,15.57
2017-12-03T07:15:18.726Z,14.85
2017-12-03T07:17:46.309Z,13.45
2017-12-03T07:20:14.709Z,14.50
2017-12-03T07:22:42.294Z,16.02
2017-12-03T07:25:09.896Z,14.87
2017-12-03T07:27:38.269Z,14.23
2017-12-03T07:30:06.812Z,15.88
2017-12-03T07:32:34.431Z,13.98
2017-12-03T07:35:02.802Z,12.90
2017-12-03T07:37:31.227Z,14.15
2017-12-03T07:39:58.810Z,13.05
2017-12-03T07:42:27.777Z,14.30
2017-12-03T07:44:55.469Z,14.68
2017-12-03T07:47:23.125Z,14.57
2017-12-03T07:49:50.858Z,14.85
2017-12-03T07:52:18.455Z,13.75
2017-12-03T07:54:46.179Z,14.20
2017-12-03T07:57:13.774Z,15.93
2017-12-03T07:59:41.385Z,14.80
2017-12-03T08:02:08.982Z,16.30
2017-12-03T08:04:36.566Z,15.40
2017-12-03T08:07:04.942Z,14.32
2017-12-03T08:09:33.297Z,13.52
2017-12-03T08:12:02.389Z,14.02
2017-12-03T08:14:30.798Z,13.65
2017-12-03T08:16:59.147Z,15.00
2017-12-03T08:19:26.931Z,14.18
2017-12-03T08:21:55.281Z,13.38
2017-12-03T08:24:22.865Z,12.43
2017-12-03T08:26:51.274Z,12.98
2017-12-03T08:29:18.859Z,11.98
2017-12-03T08:31:46.446Z,11.48
2017-12-03T08:34:14.074Z,12.52
2017-12-03T08:36:41.672Z,13.45
2017-12-03T08:39:09.254Z,12.75
2017-12-03T08:41:36.874Z,12.43
2017-12-03T08:44:04.458Z,13.02
2017-12-03T08:46:32.806Z,12.52
2017-12-03T08:49:00.448Z,12.60
2017-12-03T08:51:28.029Z,11.43
2017-12-03T08:53:55.621Z,12.18
2017-12-03T08:56:24.030Z,12.40
2017-12-03T08:58:51.610Z,9.52
2017-12-03T09:01:19.193Z,11.45
2017-12-03T09:03:46.801Z,10.50
2017-12-03T09:06:14.405Z,9.73
2017-12-03T09:08:42.031Z,10.13
2017-12-03T09:11:09.617Z,10.23
2017-12-03T09:13:37.207Z,10.10
2017-12-03T09:16:05.593Z,8.75
2017-12-03T09:18:33.944Z,10.30
2017-12-03T09:21:01.534Z,11.40
2017-12-03T09:23:29.197Z,11.65
2017-12-03T09:25:56.798Z,10.45
2017-12-03T09:28:24.378Z,10.65
2017-12-03T09:30:53.329Z,11.10
2017-12-03T09:33:20.909Z,9.73
2017-12-03T09:35:49.279Z,10.77
2017-12-03T09:38:17.653Z,9.15
2017-12-03T09:40:49.194Z,8.93
2017-12-03T09:43:16.818Z,8.65
2017-12-03T09:45:47.960Z,9.65
2017-12-03T09:48:15.921Z,8.68
2017-12-03T09:50:44.286Z,11.35
2017-12-03T09:53:11.869Z,9.35
2017-12-03T09:55:39.498Z,11.20
2017-12-03T09:58:07.073Z,9.35
2017-12-03T10:00:35.421Z,10.63
2017-12-03T10:03:03.017Z,7.65
2017-12-03T10:05:31.359Z,9.68
2017-12-03T10:07:58.982Z,7.65
2017-12-03T10:10:26.566Z,10.70
2017-12-03T10:12:54.913Z,8.85
2017-12-03T10:15:22.546Z,9.07
2017-12-03T10:17:50.902Z,8.30
2017-12-03T10:20:18.485Z,10.85
2017-12-03T10:22:46.881Z,8.85
2017-12-03T10:25:14.465Z,9.05
2017-12-03T10:27:42.041Z,8.15
2017-12-03T10:30:09.657Z,8.48
2017-12-03T10:32:37.235Z,8.15
2017-12-03T10:35:04.818Z,9.20
2017-12-03T10:37:32.437Z,7.80
2017-12-03T10:40:00.018Z,8.65
2017-12-03T10:42:27.629Z,8.25
2017-12-03T10:44:56.032Z,9.65
2017-12-03T10:47:23.610Z,9.82
2017-12-03T10:49:51.186Z,9.75
2017-12-03T10:52:18.809Z,8.18
2017-12-03T10:54:46.388Z,9.77
2017-12-03T10:57:13.962Z,10.05
2017-12-03T10:59:41.593Z,8.38
2017-12-03T11:02:09.268Z,9.05
2017-12-03T11:04:36.854Z,8.80
2017-12-03T11:07:04.477Z,8.45
2017-12-03T11:09:32.149Z,9.65
2017-12-03T11:11:59.740Z,9.63
2017-12-03T11:14:28.213Z,9.63
2017-12-03T11:16:55.799Z,9.82
2017-12-03T11:19:24.158Z,11.18
2017-12-03T11:21:51.782Z,11.48
2017-12-03T11:24:19.360Z,10.23
2017-12-03T11:26:46.974Z,9.75
2017-12-03T11:29:14.598Z,12.37
2017-12-03T11:31:42.185Z,11.73
2017-12-03T11:34:09.768Z,11.90
2017-12-03T11:36:37.406Z,11.12
2017-12-03T11:39:04.990Z,11.77
2017-12-03T11:41:32.574Z,12.05
2017-12-03T11:44:00.813Z,10.57
2017-12-03T11:46:29.125Z,11.07
2017-12-03T11:48:58.072Z,11.93
2017-12-03T11:51:25.713Z,9.75
2017-12-03T11:53:54.061Z,11.80
2017-12-03T11:56:22.407Z,13.48
2017-12-03T11:58:50.010Z,12.88
2017-12-03T12:01:18.358Z,11.95
2017-12-03T12:03:45.994Z,12.52
2017-12-03T12:06:13.573Z,12.73
2017-12-03T12:08:41.157Z,11.95
2017-12-03T12:11:08.766Z,13.15
2017-12-03T12:13:36.351Z,14.35
2017-12-03T12:16:03.925Z,15.88
2017-12-03T12:18:31.533Z,14.50
2017-12-03T12:20:59.118Z,15.30
2017-12-03T12:23:26.748Z,14.27
2017-12-03T12:25:54.336Z,13.55
2017-12-03T12:28:21.918Z,13.30
2017-12-03T12:30:49.553Z,13.90
2017-12-03T12:33:17.133Z,13.90
2017-12-03T12:35:45.489Z,13.18
2017-12-03T12:38:13.093Z,12.35
2017-12-03T12:40:41.438Z,12.25
2017-12-03T12:43:09.082Z,12.82
2017-12-03T12:45:36.714Z,12.63
2017-12-03T12:48:04.322Z,12.07
2017-12-03T12:50:31.914Z,12.65
2017-12-03T12:53:01.054Z,11.80
2017-12-03T12:55:28.661Z,11.93
2017-12-03T12:57:56.278Z,12.05
2017-12-03T13:00:23.902Z,12.00
2017-12-03T13:02:51.522Z,12.80
2017-12-03T13:05:19.106Z,12.85
2017-12-03T13:07:47.578Z,12.90
2017-12-03T13:10:15.929Z,13.05
2017-12-03T13:12:43.522Z,12.02
2017-12-03T13:15:11.956Z,13.57
2017-12-03T13:17:39.541Z,13.27
2017-12-03T13:20:07.122Z,12.32
2017-12-03T13:22:35.514Z,13.27
2017-12-03T13:25:03.101Z,13.15
2017-12-03T13:27:30.693Z,14.02
2017-12-03T13:29:58.369Z,13.15
2017-12-03T13:32:26.718Z,13.55
2017-12-03T13:34:54.302Z,13.50
2017-12-03T13:37:22.674Z,14.75
2017-12-03T13:39:51.024Z,14.30
2017-12-03T13:42:18.660Z,13.88
2017-12-03T13:44:46.242Z,17.00
2017-12-03T13:47:13.834Z,13.70
2017-12-03T13:49:42.676Z,13.02
2017-12-03T13:52:10.335Z,14.73
2017-12-03T13:54:37.941Z,14.50
2017-12-03T13:57:06.328Z,14.50
2017-12-03T13:59:34.677Z,14.35
2017-12-03T14:02:02.257Z,13.13
2017-12-03T14:04:30.634Z,15.73
2017-12-03T14:07:01.562Z,14.40
2017-12-03T14:09:31.254Z,14.05
2017-12-03T14:11:58.841Z,13.80
2017-12-03T14:14:28.397Z,13.35
2017-12-03T14:16:56.155Z,14.35
2017-12-03T14:19:23.738Z,15.10
2017-12-03T14:21:52.317Z,14.70
2017-12-03T14:24:19.942Z,14.15
2017-12-03T14:26:48.328Z,13.62
2017-12-03T14:29:15.910Z,14.02
2017-12-03T14:31:43.865Z,13.65
2017-12-03T14:34:16.205Z,13.88
2017-12-03T14:36:43.838Z,14.35
2017-12-03T14:39:12.225Z,12.00
2017-12-03T14:41:40.577Z,13.80
2017-12-03T14:44:08.183Z,12.05
2017-12-03T14:46:39.359Z,12.50
2017-12-03T14:49:07.007Z,12.15
2017-12-03T14:51:34.590Z,12.57
2017-12-03T14:54:03.017Z,12.90
2017-12-03T14:56:30.601Z,12.98
2017-12-03T14:58:58.183Z,12.05
2017-12-03T15:01:25.809Z,13.05
2017-12-03T15:03:53.390Z,13.32
2017-12-03T15:06:20.977Z,13.13
2017-12-03T15:08:48.610Z,12.90
2017-12-03T15:11:16.189Z,12.10
2017-12-03T15:13:43.781Z,13.88
2017-12-03T15:16:11.410Z,12.35
2017-12-03T15:18:38.997Z,14.10
2017-12-03T15:21:07.549Z,13.07
2017-12-03T15:23:35.999Z,14.45
2017-12-03T15:26:03.585Z,13.35
2017-12-03T15:28:31.202Z,16.30
2017-12-03T15:30:58.796Z,16.12
2017-12-03T15:33:26.377Z,16.05
2017-12-03T15:35:54.765Z,14.82
2017-12-03T15:38:23.117Z,16.45
2017-12-03T15:40:50.702Z,17.45
2017-12-03T15:43:19.246Z,16.95
2017-12-03T15:45:46.838Z,17.98
2017-12-03T15:48:15.190Z,19.08
2017-12-03T15:50:42.827Z,17.75
2017-12-03T15:53:10.422Z,19.62
2017-12-03T15:55:38.788Z,18.52
2017-12-03T15:58:06.413Z,19.92
2017-12-03T16:00:34.005Z,18.83
2017-12-03T16:03:01.594Z,18.87
2017-12-03T16:05:29.985Z,17.45
2017-12-03T16:07:57.631Z,19.12
2017-12-03T16:10:26.046Z,18.55
2017-12-03T16:12:53.657Z,18.20
2017-12-03T16:15:22.085Z,20.00
2017-12-03T16:17:49.713Z,19.45
2017-12-03T16:20:17.303Z,21.12
2017-12-03T16:22:44.893Z,18.67
2017-12-03T16:25:12.506Z,17.92
2017-12-03T16:27:40.090Z,17.33
2017-12-03T16:30:07.718Z,19.80
2017-12-03T16:32:35.305Z,19.52
2017-12-03T16:35:02.959Z,17.00
2017-12-03T16:37:30.586Z,19.12
2017-12-03T16:39:58.174Z,18.40
2017-12-03T16:42:25.768Z,20.33
2017-12-03T16:44:53.506Z,19.25
2017-12-03T16:47:21.095Z,18.80
2017-12-03T16:49:48.721Z,19.15
2017-12-03T16:52:16.362Z,18.25
2017-12-03T16:54:44.038Z,19.20
2017-12-03T16:57:11.621Z,19.30
2017-12-03T16:59:40.027Z,18.12
2017-12-03T17:02:08.514Z,17.80
2017-12-03T17:04:36.868Z,19.00
2017-12-03T17:07:04.596Z,19.00
2017-12-03T17:09:32.186Z,17.77
2017-12-03T17:12:00.538Z,17.42
2017-12-03T17:14:28.186Z,17.77
2017-12-03T17:16:55.777Z,17.80
2017-12-03T17:19:23.370Z,17.83
2017-12-03T17:21:51.771Z,18.75
2017-12-03T17:24:19.369Z,17.58
2017-12-03T17:26:46.962Z,17.70
2017-12-03T17:29:15.339Z,17.42
2017-12-03T17:31:43.710Z,16.70
2017-12-03T17:34:12.061Z,17.73
2017-12-03T17:36:39.690Z,18.42
2017-12-03T17:39:07.290Z,15.45
2017-12-03T17:41:35.681Z,17.10
2017-12-03T17:44:04.025Z,17.27
2017-12-03T17:46:31.605Z,16.05
2017-12-03T17:48:59.219Z,17.73
2017-12-03T17:51:26.806Z,16.27
2017-12-03T17:53:54.438Z,15.77
2017-12-03T17:56:22.025Z,16.55
2017-12-03T17:58:49.669Z,16.05
2017-12-03T18:01:17.324Z,17.35
2017-12-03T18:03:44.906Z,18.23
2017-12-03T18:06:12.489Z,16.75
2017-12-03T18:08:40.973Z,18.27
2017-12-03T18:11:09.398Z,18.37
2017-12-03T18:13:36.982Z,17.08
2017-12-03T18:16:04.605Z,19.20
2017-12-03T18:18:32.186Z,17.23
2017-12-03T18:20:59.773Z,18.65
2017-12-03T18:23:28.158Z,19.60
2017-12-03T18:25:56.510Z,16.62
2017-12-03T18:28:24.186Z,17.10
2017-12-03T18:30:51.806Z,18.73
2017-12-03T18:33:19.389Z,20.40
2017-12-03T18:35:46.973Z,20.60
2017-12-03T18:38:15.361Z,18.80
2017-12-03T18:40:43.710Z,19.33
2017-12-03T18:43:12.057Z,21.27
2017-12-03T18:45:39.686Z,17.15
2017-12-03T18:48:07.278Z,20.70
2017-12-03T18:50:34.862Z,19.95
2017-12-03T18:53:02.474Z,22.50
2017-12-03T18:55:30.062Z,19.33
2017-12-03T18:57:57.646Z,23.58
2017-12-03T19:00:27.165Z,21.10
2017-12-03T19:02:55.517Z,20.37
2017-12-03T19:05:23.098Z,25.80
2017-12-03T19:07:51.520Z,23.27
2017-12-03T19:10:19.101Z,21.25
2017-12-03T19:12:46.681Z,23.27
2017-12-03T19:15:14.321Z,24.65
2017-12-03T19:17:41.926Z,22.83
2017-12-03T19:20:10.274Z,22.77
2017-12-03T19:22:37.901Z,25.17
2017-12-03T19:25:05.495Z,21.27
2017-12-03T19:27:33.845Z,20.10
2017-12-03T19:30:01.485Z,19.92
2017-12-03T19:32:29.082Z,21.15
2017-12-03T19:34:56.667Z,20.83
2017-12-03T19:37:25.041Z,20.02
2017-12-03T19:39:53.392Z,21.27
2017-12-03T19:42:20.973Z,22.65
2017-12-03T19:44:49.369Z,21.83
2017-12-03T19:47:16.954Z,21.52
2017-12-03T19:49:44.538Z,20.45
2017-12-03T19:52:12.170Z,20.08
2017-12-03T19:54:39.749Z,20.42
2017-12-03T19:57:07.507Z,20.77
2017-12-03T19:59:35.132Z,20.42
2017-12-03T20:02:02.718Z,21.87
2017-12-03T20:04:30.310Z,18.85
2017-12-03T20:06:58.697Z,22.60
2017-12-03T20:09:26.284Z,22.87
2017-12-03T20:11:53.860Z,22.62
2017-12-03T20:14:21.464Z,22.70
2017-12-03T20:16:50.557Z,20.48
2017-12-03T20:19:18.213Z,19.08
2017-12-03T20:21:45.859Z,19.70
2017-12-03T20:24:13.446Z,21.85
2017-12-03T20:26:41.062Z,23.12
2017-12-03T20:29:08.641Z,21.62
2017-12-03T20:31:36.222Z,19.27
2017-12-03T20:34:03.857Z,20.58
2017-12-03T20:36:31.441Z,22.90
2017-12-03T20:39:00.533Z,22.65
2017-12-03T20:41:28.166Z,21.45
2017-12-03T20:43:55.754Z,23.17
2017-12-03T20:46:23.333Z,25.50
2017-12-03T20:48:51.740Z,22.37
2017-12-03T20:51:19.329Z,23.15
2017-12-03T20:53:46.917Z,24.35
2017-12-03T20:56:15.290Z,23.10
2017-12-03T20:58:43.641Z,25.73
2017-12-03T21:01:11.221Z,22.60
2017-12-03T21:03:38.833Z,21.95
2017-12-03T21:06:06.416Z,23.38
2017-12-03T21:08:34.049Z,22.70
2017-12-03T21:11:01.720Z,24.65
2017-12-03T21:13:29.305Z,21.75
2017-12-03T21:15:58.430Z,21.58
2017-12-03T21:18:26.873Z,24.00
2017-12-03T21:20:54.453Z,20.42
2017-12-03T21:23:22.098Z,23.73
2017-12-03T21:25:51.273Z,21.17
2017-12-03T21:28:18.861Z,20.58
2017-12-03T21:30:47.242Z,23.90
2017-12-03T21:33:14.822Z,21.87
2017-12-03T21:35:43.169Z,21.87
2017-12-03T21:38:11.562Z,21.92
2017-12-03T21:40:39.909Z,23.27
2017-12-03T21:43:07.495Z,20.70
2017-12-03T21:45:35.129Z,22.05
2017-12-03T21:48:02.710Z,22.30
2017-12-03T21:50:30.298Z,20.67
2017-12-03T21:52:57.937Z,21.62
2017-12-03T21:55:26.286Z,20.17
2017-12-03T21:57:53.866Z,21.80
2017-12-03T22:00:21.494Z,21.20
2017-12-03T22:02:49.088Z,20.73
2017-12-03T22:05:17.437Z,20.08
2017-12-03T22:07:45.066Z,20.48
2017-12-03T22:10:12.644Z,20.75
2017-12-03T22:12:40.225Z,19.50
2017-12-03T22:15:07.834Z,20.27
2017-12-03T22:17:35.417Z,19.73
2017-12-03T22:20:02.998Z,20.20
2017-12-03T22:22:30.621Z,20.02
2017-12-03T22:24:58.206Z,19.27
2017-12-03T22:27:25.785Z,21.90
2017-12-03T22:29:53.407Z,17.80
2017-12-03T22:32:21.068Z,21.20
2017-12-03T22:34:48.650Z,20.35
2017-12-03T22:37:16.257Z,20.33
2017-12-03T22:39:43.838Z,21.85
2017-12-03T22:42:11.454Z,19.40
2017-12-03T22:44:39.837Z,20.30
2017-12-03T22:47:08.186Z,19.62
2017-12-03T22:49:35.770Z,21.33
2017-12-03T22:52:04.170Z,18.70
2017-12-03T22:54:31.749Z,19.75
2017-12-03T22:56:59.338Z,21.27
2017-12-03T22:59:26.947Z,20.92
2017-12-03T23:01:54.529Z,21.70
2017-12-03T23:04:29.917Z,20.88
2017-12-03T23:06:57.497Z,22.90
2017-12-03T23:09:25.076Z,22.37
2017-12-03T23:11:52.686Z,19.12
2017-12-03T23:14:20.270Z,19.52
2017-12-03T23:16:47.901Z,21.67
2017-12-03T23:19:15.483Z,20.02
2017-12-03T23:21:43.834Z,19.35
2017-12-03T23:24:11.454Z,20.48
2017-12-03T23:26:39.037Z,20.23
2017-12-03T23:29:06.617Z,18.27
